Map

Track Data

SID SEASON NUMBER BASIN SUBBASIN NAME ISO_TIME NATURE LAT LON WMO_WIND WMO_PRES WMO_AGENCY TRACK_TYPE DIST2LAND LANDFALL IFLAG USA_AGENCY USA_ATCF_ID USA_LAT USA_LON USA_RECORD USA_STATUS USA_WIND USA_PRES USA_SSHS USA_R34_NE USA_R34_SE USA_R34_SW USA_R34_NW USA_R50_NE USA_R50_SE USA_R50_SW USA_R50_NW USA_R64_NE USA_R64_SE USA_R64_SW USA_R64_NW USA_POCI USA_ROCI USA_RMW USA_EYE TOKYO_LAT TOKYO_LON TOKYO_GRADE TOKYO_WIND TOKYO_PRES TOKYO_R50_DIR TOKYO_R50_LONG TOKYO_R50_SHORT TOKYO_R30_DIR TOKYO_R30_LONG TOKYO_R30_SHORT TOKYO_LAND CMA_LAT CMA_LON CMA_CAT CMA_WIND CMA_PRES HKO_LAT HKO_LON HKO_CAT HKO_WIND HKO_PRES NEWDELHI_LAT NEWDELHI_LON NEWDELHI_GRADE NEWDELHI_WIND NEWDELHI_PRES NEWDELHI_CI NEWDELHI_DP NEWDELHI_POCI REUNION_LAT REUNION_LON REUNION_TYPE REUNION_WIND REUNION_PRES REUNION_TNUM REUNION_CI REUNION_RMW REUNION_R34_NE REUNION_R34_SE REUNION_R34_SW REUNION_R34_NW REUNION_R50_NE REUNION_R50_SE REUNION_R50_SW REUNION_R50_NW REUNION_R64_NE REUNION_R64_SE REUNION_R64_SW REUNION_R64_NW BOM_LAT BOM_LON BOM_TYPE BOM_WIND BOM_PRES BOM_TNUM BOM_CI BOM_RMW BOM_R34_NE BOM_R34_SE BOM_R34_SW BOM_R34_NW BOM_R50_NE BOM_R50_SE BOM_R50_SW BOM_R50_NW BOM_R64_NE BOM_R64_SE BOM_R64_SW BOM_R64_NW BOM_ROCI BOM_POCI BOM_EYE BOM_POS_METHOD BOM_PRES_METHOD NADI_LAT NADI_LON NADI_CAT NADI_WIND NADI_PRES WELLINGTON_LAT WELLINGTON_LON WELLINGTON_WIND WELLINGTON_PRES DS824_LAT DS824_LON DS824_STAGE DS824_WIND DS824_PRES TD9636_LAT TD9636_LON TD9636_STAGE TD9636_WIND TD9636_PRES TD9635_LAT TD9635_LON TD9635_WIND TD9635_PRES TD9635_ROCI NEUMANN_LAT NEUMANN_LON NEUMANN_CLASS NEUMANN_WIND NEUMANN_PRES MLC_LAT MLC_LON MLC_CLASS MLC_WIND MLC_PRES USA_GUST BOM_GUST BOM_GUST_PER REUNION_GUST REUNION_GUST_PER USA_SEAHGT USA_SEARAD_NE USA_SEARAD_SE USA_SEARAD_SW USA_SEARAD_NW STORM_SPEED STORM_DIR
1944030S06063 1944 8 SI MM NOT_NAMED 1944-01-30 06:00:00 TS -6.10000 63.3000 main 1660 1576 _________OO___ -1 -6.10000 63.3000 TC 25 -6.10000 63.3000 1 16 244
1944030S06063 1944 8 SI MM NOT_NAMED 1944-01-30 09:00:00 TS -6.44578 62.6013 main 1576 1496 _________PP___ -1 -6.45020 62.5927 TC 25 -6.44135 62.6099 1 15 243
1944030S06063 1944 8 SI MM NOT_NAMED 1944-01-30 12:00:00 TS -6.79291 61.9127 main 1486 1412 _________OP___ -1 -6.80000 61.9000 TC 25 -6.78581 61.9254 1 15 243
1944030S06063 1944 8 SI MM NOT_NAMED 1944-01-30 15:00:00 TS -7.14362 61.2441 main 1402 1323 _________PP___ -1 -7.14991 61.2349 TC 25 -7.13734 61.2533 1 15 242
1944030S06063 1944 8 SI MM NOT_NAMED 1944-01-30 18:00:00 TS -7.50000 60.6000 main 1323 1249 _________OO___ -1 -7.50000 60.6000 TC 25 -7.50000 60.6000 1 14 240
1944030S06063 1944 8 SI MM NOT_NAMED 1944-01-30 21:00:00 TS -7.85905 59.9784 main 1243 1169 _________PP___ -1 -7.84241 59.9849 TC 25 -7.87570 59.9719 1 14 239
1944030S06063 1944 8 SI MM NOT_NAMED 1944-01-31 00:00:00 TS -8.22862 59.3875 main 1169 1100 _________OP___ -1 -8.20000 59.4000 TC 25 -8.25724 59.3750 1 14 236
1944030S06063 1944 8 SI MM NOT_NAMED 1944-01-31 03:00:00 TS -8.62130 58.8216 main 1090 1020 _________PP___ -1 -8.60745 58.8275 TC 25 -8.63516 58.8156 1 13 234
1944030S06063 1944 8 SI MM NOT_NAMED 1944-01-31 06:00:00 TS -9.00000 58.3000 main 1020 956 _________OO___ -1 -9.00000 58.3000 TC 25 -9.00000 58.3000 1 12 235
1944030S06063 1944 8 SI MM NOT_NAMED 1944-01-31 09:00:00 TS -9.31515 57.8152 main 956 902 _________PP___ -1 -9.30741 57.8273 TC 25 -9.32288 57.8031 1 11 236
1944030S06063 1944 8 SI MM NOT_NAMED 1944-01-31 12:00:00 TS -9.61737 57.3760 main 902 848 _________OP___ -1 -9.60000 57.4000 TC 25 -9.63475 57.3521 1 10 233
1944030S06063 1944 8 SI MM NOT_NAMED 1944-01-31 15:00:00 TS -9.94458 56.9712 main 848 790 _________PP___ -1 -9.93493 56.9924 TC 25 -9.95424 56.9500 1 10 228
1944030S06063 1944 8 SI MM NOT_NAMED 1944-01-31 18:00:00 TS -10.3000 56.6000 main 790 732 _________OO___ -1 -10.3000 56.6000 TC 25 -10.3000 56.6000 1 11 225
1944030S06063 1944 8 SI MM NOT_NAMED 1944-01-31 21:00:00 TS -10.7048 56.1971 main 732 686 _________PP___ -1 -10.6851 56.1551 TC 25 -10.7245 56.2391 1 11 221
1944030S06063 1944 8 SI MM NOT_NAMED 1944-02-01 00:00:00 TS -11.1362 55.8678 main 686 649 _________OP___ -1 -11.1000 55.8000 TC 25 -11.1723 55.9356 1 10 210
1944030S06063 1944 8 SI MM NOT_NAMED 1944-02-01 03:00:00 TS -11.5907 55.6696 main 649 627 _________PP___ -1 -11.5724 55.6249 TC 25 -11.6089 55.7142 1 9 197
1944030S06063 1944 8 SI MM NOT_NAMED 1944-02-01 06:00:00 TS -12.0000 55.6000 main 627 619 _________OO___ -1 -12.0000 55.6000 TC 25 -12.0000 55.6000 1 7 183
1944030S06063 1944 8 SI MM NOT_NAMED 1944-02-01 09:00:00 TS -12.2982 55.6395 main 619 619 _________PP___ -1 -12.2800 55.6624 TC 25 -12.3164 55.6165 1 6 163
1944030S06063 1944 8 SI MM NOT_NAMED 1944-02-01 12:00:00 TS -12.5412 55.7684 main 634 629 _________OP___ -1 -12.5000 55.8000 TC 25 -12.5824 55.7367 1 6 150
1944030S06063 1944 8 SI MM NOT_NAMED 1944-02-01 15:00:00 TS -12.7861 55.9280 main 637 637 _________PP___ -1 -12.7650 55.9425 TC 25 -12.8072 55.9136 1 6 145
1944030S06063 1944 8 SI MM NOT_NAMED 1944-02-01 18:00:00 TS -13.0000 56.1000 main 652 648 _________OO___ -1 -13.0000 56.1000 TC 25 -13.0000 56.1000 1 5 142
1944030S06063 1944 8 SI MM NOT_NAMED 1944-02-01 21:00:00 TS -13.1617 56.2333 main 654 654 _________PP___ -1 -13.1650 56.2575 TC 25 -13.1583 56.2090 1 4 139
1944030S06063 1944 8 SI MM NOT_NAMED 1944-02-02 00:00:00 TS -13.2962 56.3602 main 670 667 _________OP___ -1 -13.3000 56.4000 TC 25 -13.2924 56.3205 1 4 140
1944030S06063 1944 8 SI MM NOT_NAMED 1944-02-02 03:00:00 TS -13.4326 56.4659 main 677 674 _________PP___ -1 -13.4349 56.4851 TC 25 -13.4302 56.4466 1 4 142
1944030S06063 1944 8 SI MM NOT_NAMED 1944-02-02 06:00:00 TS -13.6000 56.6000 main 681 681 _________OO___ -1 -13.6000 56.6000 TC 25 -13.6000 56.6000 1 5 140
1944030S06063 1944 8 SI MM NOT_NAMED 1944-02-02 09:00:00 TS -13.8354 56.8176 main 696 672 _________PP___ -1 -13.8276 56.8350 TC 25 -13.8432 56.8001 1 7 139
1944030S06063 1944 8 SI MM NOT_NAMED 1944-02-02 12:00:00 TS -14.1101 57.0636 main 672 638 _________OP___ -1 -14.1000 57.1000 TC 25 -14.1201 57.0273 1 7 141
1944030S06063 1944 8 SI MM NOT_NAMED 1944-02-02 15:00:00 TS -14.4060 57.2867 main 638 604 _________PP___ -1 -14.4000 57.3075 TC 25 -14.4119 57.2658 1 7 144
1944030S06063 1944 8 SI MM NOT_NAMED 1944-02-02 18:00:00 TS -14.7000 57.5000 main 604 581 _________OO___ -1 -14.7000 57.5000 TC 25 -14.7000 57.5000 1 7 144
1944030S06063 1944 8 SI MM NOT_NAMED 1944-02-02 21:00:00 TS -14.9614 57.7057 main 570 548 _________PP___ -1 -14.9575 57.7001 TC 25 -14.9652 57.7114 1 6 142
1944030S06063 1944 8 SI MM NOT_NAMED 1944-02-03 00:00:00 TS -15.2112 57.9076 main 548 526 _________OP___ -1 -15.2000 57.9000 TC 25 -15.2224 57.9151 1 6 142
1944030S06063 1944 8 SI MM NOT_NAMED 1944-02-03 03:00:00 TS -15.4629 58.1094 main 516 496 _________PP___ -1 -15.4575 58.1075 TC 25 -15.4684 58.1113 1 6 142
1944030S06063 1944 8 SI MM NOT_NAMED 1944-02-03 06:00:00 TS -15.7000 58.3000 main 496 475 _________OO___ -1 -15.7000 58.3000 TC 25 -15.7000 58.3000 1 6 143
1944030S06063 1944 8 SI MM NOT_NAMED 1944-02-03 09:00:00 TS -15.9109 58.4662 main 477 457 _________PP___ -1 -15.9075 58.4501 TC 25 -15.9143 58.4824 1 5 142
1944030S06063 1944 8 SI MM NOT_NAMED 1944-02-03 12:00:00 TS -16.1074 58.6289 main 457 440 _________OP___ -1 -16.1000 58.6000 TC 25 -16.1149 58.6578 1 5 139
1944030S06063 1944 8 SI MM NOT_NAMED 1944-02-03 15:00:00 TS -16.3040 58.8146 main 440 425 _________PP___ -1 -16.3000 58.8000 TC 25 -16.3081 58.8292 1 5 138
1944030S06063 1944 8 SI MM NOT_NAMED 1944-02-03 18:00:00 TS -16.5000 59.0000 main 425 408 _________OO___ -1 -16.5000 59.0000 TC 25 -16.5000 59.0000 1 5 140
1944030S06063 1944 8 SI MM NOT_NAMED 1944-02-03 21:00:00 TS -16.7020 59.1666 main 411 395 _________PP___ -1 -16.7000 59.1501 TC 25 -16.7041 59.1831 1 5 142
1944030S06063 1944 8 SI MM NOT_NAMED 1944-02-04 00:00:00 TS -16.9038 59.3325 main 395 385 _________OP___ -1 -16.9000 59.3000 TC 25 -16.9075 59.3650 1 5 140
1944030S06063 1944 8 SI MM NOT_NAMED 1944-02-04 03:00:00 TS -17.1036 59.5234 main 385 377 _________PP___ -1 -17.1000 59.5075 TC 25 -17.1072 59.5394 1 5 138
1944030S06063 1944 8 SI MM NOT_NAMED 1944-02-04 06:00:00 TS -17.3000 59.7000 main 377 365 _________OO___ -1 -17.3000 59.7000 TC 25 -17.3000 59.7000 1 5 144
1944030S06063 1944 8 SI MM NOT_NAMED 1944-02-04 09:00:00 TS -17.5009 59.8215 main 365 354 _________PP___ -1 -17.5075 59.8076 TC 25 -17.4943 59.8354 1 4 151
1944030S06063 1944 8 SI MM NOT_NAMED 1944-02-04 12:00:00 TS -17.6899 59.9288 main 354 353 _________OP___ -1 -17.7000 59.9000 TC 25 -17.6799 59.9577 1 4 148
1944030S06063 1944 8 SI MM NOT_NAMED 1944-02-04 15:00:00 TS -17.8578 60.0593 main 352 352 _________PP___ -1 -17.8650 60.0425 TC 25 -17.8505 60.0760 1 4 140
1944030S06063 1944 8 SI MM NOT_NAMED 1944-02-04 18:00:00 TS -18.0000 60.2000 main 352 352 _________OO___ -1 -18.0000 60.2000 TC 25 -18.0000 60.2000 1 4 133
1944030S06063 1944 8 SI MM NOT_NAMED 1944-02-04 21:00:00 TS -18.1145 60.3465 main 353 353 _________PP___ -1 -18.1075 60.3500 TC 25 -18.1216 60.3429 1 4 127
1944030S06063 1944 8 SI MM NOT_NAMED 1944-02-05 00:00:00 TS -18.2112 60.4963 main 362 362 _________OP___ -1 -18.2000 60.5000 TC 25 -18.2225 60.4926 1 3 124
1944030S06063 1944 8 SI MM NOT_NAMED 1944-02-05 03:00:00 TS -18.3061 60.6480 main 365 365 _________PP___ -1 -18.3000 60.6500 TC 25 -18.3122 60.6460 1 3 123
1944030S06063 1944 8 SI MM NOT_NAMED 1944-02-05 06:00:00 TS -18.4000 60.8000 main 376 376 _________OO___ -1 -18.4000 60.8000 TC 25 -18.4000 60.8000 1 3 124
1944030S06063 1944 8 SI MM NOT_NAMED 1944-02-05 09:00:00 TS -18.5000 60.9500 main 389 384 _________PP___ -1 -18.5000 60.9500 TC 25 -18.5000 60.9501 1 3 125
1944030S06063 1944 8 SI MM NOT_NAMED 1944-02-05 12:00:00 TS -18.6000 61.1000 main 394 394 _________OP___ -1 -18.6000 61.1000 TC 25 -18.6000 61.1001 1 3 125
1944030S06063 1944 8 SI MM NOT_NAMED 1944-02-05 15:00:00 TS -18.7000 61.2500 main 408 403 _________PP___ -1 -18.7000 61.2500 TC 25 -18.7000 61.2501 1 3 125
1944030S06063 1944 8 SI MM NOT_NAMED 1944-02-05 18:00:00 TS -18.8000 61.4000 main 412 412 _________OO___ -1 -18.8000 61.4000 TC 25 -18.8000 61.4000 1 4 125
1944030S06063 1944 8 SI MM NOT_NAMED 1944-02-05 21:00:00 TS -18.9020 61.5541 main 427 423 _________PP___ -1 -18.9000 61.5500 TC 25 -18.9041 61.5581 1 4 125
1944030S06063 1944 8 SI MM NOT_NAMED 1944-02-06 00:00:00 TS -19.0038 61.7075 main 433 433 _________OP___ -1 -19.0000 61.7000 TC 25 -19.0075 61.7150 1 4 125
1944030S06063 1944 8 SI MM NOT_NAMED 1944-02-06 03:00:00 TS -19.1074 61.8609 main 449 446 _________PP___ -1 -19.1075 61.8575 TC 25 -19.1072 61.8644 1 3 125
1944030S06063 1944 8 SI MM NOT_NAMED 1944-02-06 06:00:00 TS -19.2000 62.0000 main 456 456 _________OO___ -1 -19.2000 62.0000 TC 25 -19.2000 62.0000 1 3 125
1944030S06063 1944 8 SI MM NOT_NAMED 1944-02-06 09:00:00 TS -19.2660 62.1070 main 463 463 _________PP___ -1 -19.2500 62.1075 TC 25 -19.2821 62.1064 1 2 124
1944030S06063 1944 8 SI MM NOT_NAMED 1944-02-06 12:00:00 TS -19.3287 62.2001 main 473 471 _________OP___ -1 -19.3000 62.2000 TC 25 -19.3574 62.2002 1 2 130
1944030S06063 1944 8 SI MM NOT_NAMED 1944-02-06 15:00:00 TS -19.4107 62.2932 main 481 478 _________PP___ -1 -19.3925 62.2925 TC 25 -19.4290 62.2939 1 3 132
1944030S06063 1944 8 SI MM NOT_NAMED 1944-02-06 18:00:00 TS -19.5000 62.4000 main 489 489 _________OO___ -1 -19.5000 62.4000 TC 25 -19.5000 62.4000 1 3 128
1944030S06063 1944 8 SI MM NOT_NAMED 1944-02-06 21:00:00 TS -19.5902 62.5352 main 497 497 _________PP___ -1 -19.6075 62.5425 TC 25 -19.5729 62.5280 1 3 123
1944030S06063 1944 8 SI MM NOT_NAMED 1944-02-07 00:00:00 TS -19.6738 62.6874 main 516 516 _________OP___ -1 -19.7000 62.7000 TC 25 -19.6477 62.6748 1 3 117
1944030S06063 1944 8 SI MM NOT_NAMED 1944-02-07 03:00:00 TS -19.7418 62.8434 main 526 526 _________PP___ -1 -19.7600 62.8525 TC 25 -19.7236 62.8342 1 3 113
1944030S06063 1944 8 SI MM NOT_NAMED 1944-02-07 06:00:00 TS -19.8000 63.0000 main 545 _________OO___ -1 -19.8000 63.0000 TC 25 -19.8000 63.0000 1 3 112

About IBTrACS Database

This database is a web-friendly format of International Best Track Archive for Climate Stewardship (IBTrACS), a global best track data archive curated by NOAA dating back to 1842.

Updated: 2021-10-08